Time;durP1;ratioP1;P1;durP2;ratioP2;P2;SDS_P1;SDS_P2;PMS_P1;PMS_P2;Temp;Humidity;BMP_temperature;BMP_pressure;BME280_temperature;BME280_humidity;BME280_pressure;Samples;Min_cycle;Max_cycle;Signal;HPM_P1;HPM_P2
2022/11/22 00:00:54;;;;;;;30.70;17.40;;;3.30;99.90;;;;;;5095103;28;20118;-78
2022/11/22 00:03:19;;;;;;;32.78;17.15;;;3.60;99.90;;;;;;5113059;28;20046;-78
2022/11/22 00:05:45;;;;;;;33.28;18.08;;;3.10;99.90;;;;;;5111550;28;20054;-78
2022/11/22 00:08:10;;;;;;;30.83;16.05;;;3.10;99.90;;;;;;5111630;28;20044;-78
2022/11/22 00:10:36;;;;;;;33.35;17.98;;;3.10;99.90;;;;;;5111507;28;20043;-78
2022/11/22 00:13:02;;;;;;;34.13;17.48;;;3.10;99.90;;;;;;5111277;28;20078;-78
2022/11/22 00:15:28;;;;;;;32.95;17.50;;;3.40;99.90;;;;;;5112929;28;20063;-78
2022/11/22 00:17:54;;;;;;;36.67;19.65;;;3.10;99.90;;;;;;5094449;28;20039;-78
2022/11/22 00:20:20;;;;;;;35.55;18.15;;;3.50;99.90;;;;;;5111482;28;20043;-78
2022/11/22 00:22:45;;;;;;;32.15;17.63;;;3.10;99.90;;;;;;5111119;28;20512;-78
2022/11/22 00:25:11;;;;;;;34.17;18.92;;;3.50;99.90;;;;;;5111175;28;20136;-77
2022/11/22 00:27:37;;;;;;;37.60;19.65;;;3.10;99.90;;;;;;5111360;28;20035;-77
2022/11/22 00:30:03;;;;;;;37.38;20.45;;;3.00;99.90;;;;;;5111223;28;20027;-78
2022/11/22 00:32:29;;;;;;;32.75;20.00;;;3.00;99.90;;;;;;5110919;28;20119;-77
2022/11/22 00:34:54;;;;;;;31.88;18.88;;;3.40;99.90;;;;;;5111457;28;20130;-78
2022/11/22 00:37:20;;;;;;;31.05;19.98;;;3.40;99.90;;;;;;5111112;28;20045;-78
2022/11/22 00:39:45;;;;;;;33.00;17.38;;;2.90;99.90;;;;;;5111076;28;20031;-77
2022/11/22 00:42:10;;;;;;;33.17;16.67;;;3.30;99.90;;;;;;5111047;28;20055;-78
2022/11/22 00:44:36;;;;;;;35.92;17.35;;;3.00;99.90;;;;;;5112047;28;20454;-78
2022/11/22 00:47:02;;;;;;;30.48;17.73;;;3.10;99.90;;;;;;5110798;28;20081;-77
2022/11/22 00:49:27;;;;;;;31.50;17.73;;;3.00;99.90;;;;;;5111108;28;20035;-78
2022/11/22 00:51:53;;;;;;;36.78;18.70;;;3.20;99.90;;;;;;5111397;28;20093;-77
2022/11/22 00:54:18;;;;;;;36.85;19.17;;;2.90;99.90;;;;;;5111985;28;20031;-78
2022/11/22 00:56:44;;;;;;;34.50;19.65;;;2.80;99.90;;;;;;5111073;28;20040;-77
2022/11/22 00:59:09;;;;;;;36.92;19.92;;;2.90;99.90;;;;;;5112175;28;20520;-77
2022/11/22 01:01:35;;;;;;;34.42;18.98;;;2.90;99.90;;;;;;5110843;28;20121;-78
2022/11/22 01:04:00;;;;;;;38.80;19.52;;;3.00;99.90;;;;;;5110494;28;20050;-77
2022/11/22 01:06:26;;;;;;;40.00;20.88;;;3.40;99.90;;;;;;5110512;28;20153;-77
2022/11/22 01:08:51;;;;;;;36.38;19.38;;;3.00;99.90;;;;;;5111006;28;20043;-77
2022/11/22 01:11:19;;;;;;;38.40;19.77;;;3.40;99.90;;;;;;5110672;28;20047;-77
2022/11/22 01:13:44;;;;;;;38.83;21.38;;;2.90;99.90;;;;;;5110021;28;20042;-78
2022/11/22 01:16:11;;;;;;;35.92;19.17;;;3.20;99.90;;;;;;5110552;28;20039;-77
2022/11/22 01:18:36;;;;;;;35.97;19.67;;;3.20;99.90;;;;;;5110877;28;20043;-77
2022/11/22 01:21:03;;;;;;;36.63;19.48;;;3.20;99.90;;;;;;5110513;28;20036;-77
2022/11/22 01:23:29;;;;;;;34.55;19.67;;;3.40;99.90;;;;;;5111525;28;20039;-79
2022/11/22 01:25:55;;;;;;;40.03;20.65;;;2.90;99.90;;;;;;5110444;28;20036;-77
2022/11/22 01:28:20;;;;;;;38.47;19.73;;;3.00;99.90;;;;;;5110540;28;20043;-78
2022/11/22 01:30:49;;;;;;;40.00;20.60;;;3.40;99.90;;;;;;5110525;28;20075;-77
2022/11/22 01:33:15;;;;;;;42.88;21.48;;;3.00;99.90;;;;;;5110344;28;20039;-77
2022/11/22 01:35:41;;;;;;;39.40;22.23;;;3.00;99.90;;;;;;5110689;28;20036;-77
2022/11/22 01:38:06;;;;;;;36.55;20.25;;;3.10;99.90;;;;;;5110349;28;20048;-77
2022/11/22 01:40:32;;;;;;;40.15;20.52;;;3.50;99.90;;;;;;5110468;28;20054;-78
2022/11/22 01:42:59;;;;;;;38.45;20.73;;;3.10;99.90;;;;;;5110070;28;20040;-78
2022/11/22 01:45:28;;;;;;;41.55;22.05;;;3.10;99.90;;;;;;5110276;28;20035;-77
2022/11/22 01:47:55;;;;;;;42.55;22.77;;;3.50;99.90;;;;;;5110299;28;20066;-78
2022/11/22 01:50:21;;;;;;;41.72;21.95;;;3.50;99.90;;;;;;5111645;28;20496;-78
2022/11/22 01:52:47;;;;;;;39.83;21.42;;;3.30;99.90;;;;;;5110280;28;20032;-77
2022/11/22 01:55:13;;;;;;;46.80;24.02;;;3.50;99.90;;;;;;5110265;28;20123;-78
2022/11/22 01:57:41;;;;;;;35.38;20.65;;;3.40;99.90;;;;;;5110243;28;20046;-77
2022/11/22 02:00:12;;;;;;;45.05;23.67;;;3.40;99.90;;;;;;5110652;28;20467;-77
2022/11/22 02:02:38;;;;;;;48.63;23.17;;;3.10;99.90;;;;;;5109955;28;20090;-77
2022/11/22 02:05:11;;;;;;;42.60;21.58;;;3.10;99.90;;;;;;5110484;28;20525;-77
2022/11/22 02:07:48;;;;;;;44.80;22.05;;;3.50;99.90;;;;;;5110172;28;20047;-79
2022/11/22 02:10:17;;;;;;;42.53;23.13;;;3.40;99.90;;;;;;5111462;28;20516;-78
2022/11/22 02:12:44;;;;;;;44.30;23.73;;;3.60;99.90;;;;;;5109968;28;20071;-79
2022/11/22 02:15:10;;;;;;;45.45;24.45;;;3.30;99.90;;;;;;5110340;28;20084;-78
2022/11/22 02:17:36;;;;;;;45.78;23.92;;;3.20;99.90;;;;;;5110262;28;20043;-79
2022/11/22 02:20:02;;;;;;;44.60;23.73;;;3.70;99.90;;;;;;5093235;28;20400;-78
2022/11/22 02:22:43;;;;;;;44.72;23.85;;;3.40;99.90;;;;;;5109878;28;20036;-78
2022/11/22 02:25:27;;;;;;;43.53;25.58;;;3.20;99.90;;;;;;5113982;28;20050;-78
2022/11/22 02:27:53;;;;;;;43.25;22.70;;;3.70;99.90;;;;;;5113901;28;20039;-78
2022/11/22 02:30:19;;;;;;;45.78;23.70;;;3.20;99.90;;;;;;5096621;28;20069;-78
2022/11/22 02:32:44;;;;;;;43.42;24.42;;;3.40;99.90;;;;;;5113452;28;20096;-78
2022/11/22 02:35:20;;;;;;;42.30;22.25;;;3.70;99.90;;;;;;5113490;28;20039;-77
2022/11/22 02:37:48;;;;;;;43.17;24.85;;;3.20;99.90;;;;;;5113503;28;20046;-78
2022/11/22 02:40:15;;;;;;;44.72;21.92;;;3.30;99.90;;;;;;5113789;28;20505;-78
2022/11/22 02:42:49;;;;;;;43.58;23.75;;;3.80;99.90;;;;;;5113385;28;20718;-77
2022/11/22 02:45:15;;;;;;;41.30;22.38;;;3.20;99.90;;;;;;5113539;28;20040;-78
2022/11/22 02:47:40;;;;;;;40.53;21.52;;;3.30;99.90;;;;;;5113443;28;20100;-78
2022/11/22 02:50:06;;;;;;;40.22;23.42;;;3.80;99.90;;;;;;5113666;28;20036;-78
2022/11/22 02:52:32;;;;;;;44.58;23.02;;;3.20;99.90;;;;;;5113253;28;20044;-79
2022/11/22 02:54:57;;;;;;;38.33;21.08;;;3.70;99.90;;;;;;5113577;28;20039;-79
2022/11/22 02:57:23;;;;;;;34.80;21.20;;;3.70;99.90;;;;;;5113239;28;20047;-78
2022/11/22 02:59:48;;;;;;;42.15;24.77;;;3.50;99.90;;;;;;5096198;28;20497;-77
2022/11/22 03:02:14;;;;;;;40.72;21.30;;;3.80;99.90;;;;;;5113002;28;20455;-79
2022/11/22 03:04:39;;;;;;;36.53;21.73;;;3.80;99.90;;;;;;5113270;28;20065;-79
2022/11/22 03:07:05;;;;;;;40.72;21.90;;;3.80;99.90;;;;;;5114380;28;20439;-78
2022/11/22 03:09:31;;;;;;;41.50;21.83;;;3.30;99.90;;;;;;5113109;28;20039;-78
2022/11/22 03:11:56;;;;;;;37.30;20.80;;;3.40;99.90;;;;;;5113256;28;20119;-80
2022/11/22 03:14:23;;;;;;;38.53;21.50;;;3.50;99.90;;;;;;5112784;28;20043;-79
2022/11/22 03:16:48;;;;;;;40.55;21.75;;;3.60;99.90;;;;;;5113190;28;20118;-78
2022/11/22 03:19:14;;;;;;;38.25;21.77;;;3.70;99.90;;;;;;5112882;28;20461;-78
2022/11/22 03:21:40;;;;;;;37.95;20.70;;;3.30;99.90;;;;;;5112603;28;20043;-78
2022/11/22 03:24:07;;;;;;;41.92;21.60;;;3.70;99.90;;;;;;5112811;28;20080;-79
2022/11/22 03:26:34;;;;;;;39.42;21.33;;;3.70;99.90;;;;;;5112548;28;20051;-79
2022/11/22 03:28:59;;;;;;;35.80;19.13;;;3.20;99.90;;;;;;5113026;28;20043;-79
2022/11/22 03:31:25;;;;;;;37.72;20.98;;;3.40;99.90;;;;;;5112645;28;20031;-78
2022/11/22 03:33:50;;;;;;;33.83;19.42;;;3.70;99.90;;;;;;5112417;28;20031;-79
2022/11/22 03:36:16;;;;;;;35.45;20.33;;;3.80;99.90;;;;;;5111610;28;20071;-79
2022/11/22 03:38:41;;;;;;;31.83;19.80;;;3.40;99.90;;;;;;5112554;28;20039;-79
2022/11/22 03:41:07;;;;;;;34.47;19.75;;;3.80;99.90;;;;;;5112341;28;20039;-79
2022/11/22 03:43:33;;;;;;;30.10;17.48;;;3.50;99.90;;;;;;5113172;28;20065;-78
2022/11/22 03:45:58;;;;;;;38.72;19.50;;;3.40;99.90;;;;;;5112622;28;20067;-79
2022/11/22 03:48:24;;;;;;;33.60;19.10;;;3.70;99.90;;;;;;5112097;28;20527;-79
2022/11/22 03:50:49;;;;;;;33.55;18.77;;;3.80;99.90;;;;;;5112447;28;20034;-78
2022/11/22 03:53:16;;;;;;;33.40;19.23;;;3.80;99.90;;;;;;5111872;28;20043;-78
2022/11/22 03:55:41;;;;;;;40.78;19.48;;;3.40;99.90;;;;;;5111874;28;20043;-78
2022/11/22 03:58:07;;;;;;;40.30;20.80;;;3.50;99.90;;;;;;5111813;28;20148;-78
2022/11/22 04:00:33;;;;;;;34.03;19.95;;;3.90;99.90;;;;;;5112146;28;20050;-78
2022/11/22 04:02:59;;;;;;;32.92;17.90;;;3.80;99.90;;;;;;5111506;28;20039;-78
2022/11/22 04:05:25;;;;;;;33.10;19.48;;;3.40;99.90;;;;;;5112871;28;20044;-78
2022/11/22 04:07:56;;;;;;;32.28;19.10;;;3.90;99.90;;;;;;5111768;28;20115;-78
2022/11/22 04:10:25;;;;;;;34.08;19.95;;;3.50;99.90;;;;;;5111616;28;20036;-78
2022/11/22 04:12:51;;;;;;;34.95;20.52;;;3.80;99.90;;;;;;5111337;28;20036;-78
2022/11/22 04:15:16;;;;;;;34.75;18.55;;;3.70;99.90;;;;;;5111701;28;20180;-77
2022/11/22 04:17:44;;;;;;;37.72;18.98;;;3.80;99.90;;;;;;5111826;28;20153;-79
2022/11/22 04:23:07;;;;;;;36.10;19.42;;;3.70;99.90;;;;;;5111619;28;20389;-79
2022/11/22 04:25:34;;;;;;;33.13;19.30;;;3.50;99.90;;;;;;5111578;28;20071;-78
2022/11/22 04:28:00;;;;;;;34.22;18.88;;;3.80;99.90;;;;;;5111187;28;20039;-78
2022/11/22 04:33:11;;;;;;;41.70;19.67;;;3.90;99.90;;;;;;5111102;28;20506;-79
2022/11/22 04:35:36;;;;;;;35.30;18.48;;;3.90;99.90;;;;;;5111126;28;20493;-78
2022/11/22 04:38:03;;;;;;;31.95;17.52;;;3.90;99.90;;;;;;5111224;28;20039;-78
2022/11/22 04:40:28;;;;;;;34.45;20.33;;;4.20;99.90;;;;;;5111405;28;20118;-79
2022/11/22 04:45:38;;;;;;;33.38;18.25;;;3.80;99.90;;;;;;5110866;28;20523;-78
2022/11/22 04:48:03;;;;;;;33.83;19.20;;;3.70;99.90;;;;;;5110059;28;20035;-78
2022/11/22 04:53:15;;;;;;;29.27;16.85;;;4.20;99.90;;;;;;5110784;28;20097;-78
2022/11/22 04:55:43;;;;;;;30.38;16.50;;;4.30;99.90;;;;;;5112124;28;20047;-78
2022/11/22 04:58:09;;;;;;;36.95;18.33;;;3.70;99.90;;;;;;5110798;28;20157;-78
2022/11/22 05:00:35;;;;;;;35.10;18.25;;;4.20;99.90;;;;;;5110910;28;20070;-78
2022/11/22 05:03:01;;;;;;;29.23;17.25;;;3.80;99.90;;;;;;5110578;28;20047;-79
2022/11/22 05:05:27;;;;;;;31.40;17.50;;;4.20;99.90;;;;;;5110657;28;20044;-79
2022/11/22 05:07:53;;;;;;;32.80;18.65;;;4.10;99.90;;;;;;5110738;28;20493;-78
2022/11/22 05:10:19;;;;;;;32.63;16.98;;;3.80;99.90;;;;;;5093657;28;20043;-79
2022/11/22 05:12:44;;;;;;;34.97;19.30;;;3.80;99.90;;;;;;5110248;28;20115;-78
2022/11/22 05:15:10;;;;;;;29.42;16.75;;;4.30;99.90;;;;;;5093685;28;20043;-79
2022/11/22 05:17:37;;;;;;;34.38;18.65;;;4.20;99.90;;;;;;5110952;28;20032;-79
2022/11/22 05:20:04;;;;;;;33.10;17.88;;;4.00;99.90;;;;;;5110728;28;20043;-78
2022/11/22 05:25:14;;;;;;;31.15;18.10;;;4.40;99.90;;;;;;5110386;28;20485;-78
2022/11/22 05:27:39;;;;;;;31.60;16.75;;;4.40;99.90;;;;;;5110552;28;20044;-79
2022/11/22 05:30:05;;;;;;;28.80;16.50;;;4.40;99.90;;;;;;5114281;28;20489;-79
2022/11/22 05:32:31;;;;;;;30.40;17.80;;;4.40;99.90;;;;;;5112987;28;20027;-79
2022/11/22 05:34:57;;;;;;;33.78;17.27;;;4.40;99.90;;;;;;5113449;28;20057;-79
2022/11/22 05:37:23;;;;;;;29.05;17.67;;;4.00;99.90;;;;;;5113976;28;20107;-79
2022/11/22 05:39:48;;;;;;;30.23;18.08;;;4.10;99.90;;;;;;5112885;28;20039;-79
2022/11/22 05:42:14;;;;;;;29.25;18.17;;;4.00;99.90;;;;;;5114869;28;20048;-79
2022/11/22 05:44:39;;;;;;;34.05;18.88;;;4.20;99.90;;;;;;5112613;28;20046;-79
2022/11/22 05:47:05;;;;;;;26.20;16.60;;;4.20;99.90;;;;;;5113646;28;20046;-79
2022/11/22 05:49:31;;;;;;;27.00;17.00;;;4.00;99.90;;;;;;5111721;28;20032;-79
2022/11/22 05:51:57;;;;;;;30.75;16.42;;;4.10;99.90;;;;;;5111380;28;20077;-78
2022/11/22 05:54:23;;;;;;;31.95;19.23;;;4.00;99.90;;;;;;5110479;28;20051;-79
2022/11/22 05:56:49;;;;;;;31.55;18.27;;;4.50;99.90;;;;;;5111047;28;20429;-79
2022/11/22 05:59:14;;;;;;;31.38;19.27;;;4.20;99.90;;;;;;5113651;28;20050;-79
2022/11/22 06:01:40;;;;;;;28.88;17.17;;;4.50;99.90;;;;;;5114802;28;20054;-79
2022/11/22 06:04:06;;;;;;;34.25;17.52;;;4.60;99.90;;;;;;5115173;28;20035;-79
2022/11/22 06:06:31;;;;;;;30.63;17.92;;;4.40;99.90;;;;;;5115495;28;20050;-79
2022/11/22 06:08:58;;;;;;;30.73;18.63;;;4.50;99.90;;;;;;5116398;28;20374;-79
2022/11/22 06:11:25;;;;;;;31.33;18.70;;;4.50;99.90;;;;;;5116945;28;20077;-79
2022/11/22 06:13:56;;;;;;;27.25;16.25;;;4.40;99.90;;;;;;5115744;28;20035;-79
2022/11/22 06:16:22;;;;;;;33.55;17.75;;;4.20;99.90;;;;;;5116721;28;20068;-79
2022/11/22 06:18:47;;;;;;;31.52;18.15;;;4.60;99.90;;;;;;5116929;28;20520;-79
2022/11/22 06:21:16;;;;;;;28.40;17.00;;;4.60;99.90;;;;;;5116574;28;20047;-79
2022/11/22 06:23:42;;;;;;;31.35;17.77;;;4.60;99.90;;;;;;5116528;28;20446;-79
2022/11/22 06:26:10;;;;;;;28.58;17.15;;;4.70;99.90;;;;;;5116962;28;20032;-79
2022/11/22 06:28:37;;;;;;;28.10;17.02;;;4.20;99.90;;;;;;5117676;28;20039;-79
2022/11/22 06:31:11;;;;;;;36.05;18.13;;;4.20;99.90;;;;;;5117694;28;20043;-79
2022/11/22 06:33:38;;;;;;;31.73;17.27;;;4.40;99.90;;;;;;5116021;28;20073;-79
2022/11/22 06:36:09;;;;;;;31.92;19.33;;;4.70;99.90;;;;;;5117598;28;20114;-79
2022/11/22 06:38:35;;;;;;;31.50;17.40;;;4.40;99.90;;;;;;5116197;28;20481;-79
2022/11/22 06:41:02;;;;;;;32.65;17.80;;;4.60;99.90;;;;;;5116280;28;20074;-79
2022/11/22 06:43:29;;;;;;;33.83;18.15;;;4.70;99.90;;;;;;5116425;28;20130;-79
2022/11/22 06:45:56;;;;;;;34.25;18.25;;;4.50;99.90;;;;;;5114468;28;20042;-78
2022/11/22 06:48:23;;;;;;;32.95;19.13;;;4.40;99.90;;;;;;5113215;28;20051;-78
2022/11/22 06:50:48;;;;;;;33.50;18.05;;;4.70;99.90;;;;;;5113137;28;20036;-78
2022/11/22 06:53:14;;;;;;;33.58;19.92;;;4.80;99.90;;;;;;5112890;28;20035;-78
2022/11/22 06:55:40;;;;;;;29.55;17.00;;;4.60;99.90;;;;;;5113070;28;20161;-78
2022/11/22 06:58:05;;;;;;;32.13;17.80;;;4.50;99.90;;;;;;5114564;28;20043;-78
2022/11/22 07:00:31;;;;;;;32.95;18.63;;;4.80;99.90;;;;;;5114507;28;20043;-79
2022/11/22 07:02:56;;;;;;;31.88;17.95;;;4.50;99.90;;;;;;5113645;28;20054;-78
2022/11/22 07:05:22;;;;;;;33.88;18.58;;;4.60;99.90;;;;;;5116411;28;20737;-79
2022/11/22 07:07:47;;;;;;;35.83;19.02;;;4.90;99.90;;;;;;5114544;28;20042;-78
2022/11/22 07:10:13;;;;;;;34.92;18.02;;;4.90;99.90;;;;;;5113351;28;20065;-78
2022/11/22 07:12:39;;;;;;;30.77;18.13;;;4.60;99.90;;;;;;5112942;28;20088;-78
2022/11/22 07:15:05;;;;;;;26.23;16.17;;;4.70;99.90;;;;;;5113306;28;20035;-78
2022/11/22 07:17:30;;;;;;;38.30;19.23;;;4.90;99.90;;;;;;5114721;28;20042;-79
2022/11/22 07:19:56;;;;;;;31.08;16.75;;;4.90;99.90;;;;;;5113497;28;20048;-79
2022/11/22 07:22:21;;;;;;;34.55;17.95;;;4.90;99.90;;;;;;5113019;28;20039;-79
2022/11/22 07:24:47;;;;;;;35.30;18.80;;;4.60;99.90;;;;;;5113646;28;20051;-77
2022/11/22 07:27:12;;;;;;;28.55;17.55;;;4.90;99.90;;;;;;5116158;28;20085;-80
2022/11/22 07:29:38;;;;;;;32.05;17.27;;;4.60;99.90;;;;;;5115096;28;20067;-78
2022/11/22 07:32:04;;;;;;;30.13;17.48;;;4.70;99.90;;;;;;5115310;28;20032;-78
2022/11/22 07:34:29;;;;;;;37.13;17.70;;;4.70;99.90;;;;;;5112537;28;20035;-76
2022/11/22 07:36:55;;;;;;;29.73;17.45;;;5.00;99.90;;;;;;5113301;28;20035;-77
2022/11/22 07:39:20;;;;;;;35.78;16.92;;;5.00;99.90;;;;;;5112423;28;20100;-79
2022/11/22 07:41:46;;;;;;;35.20;17.70;;;4.70;99.90;;;;;;5115789;28;20044;-79
2022/11/22 07:44:11;;;;;;;31.35;16.05;;;5.10;99.90;;;;;;5114026;28;20039;-80
2022/11/22 07:46:37;;;;;;;28.73;16.92;;;4.90;99.90;;;;;;5114356;28;20051;-79
2022/11/22 07:49:02;;;;;;;29.20;16.15;;;4.80;99.90;;;;;;5110472;28;20036;-81
2022/11/22 07:51:28;;;;;;;32.92;18.17;;;5.10;99.90;;;;;;5093599;28;20036;-81
2022/11/22 07:53:55;;;;;;;30.05;17.25;;;5.20;99.90;;;;;;5092517;28;20035;-80
2022/11/22 07:56:20;;;;;;;31.77;17.40;;;5.00;99.90;;;;;;5094702;28;20036;-82
2022/11/22 07:58:46;;;;;;;31.63;15.80;;;5.20;99.90;;;;;;5099312;28;20038;-80
2022/11/22 08:01:14;;;;;;;28.20;15.48;;;5.20;99.90;;;;;;5097964;28;20105;-80
2022/11/22 08:03:40;;;;;;;29.63;15.20;;;5.20;99.90;;;;;;5097441;28;20044;-80
2022/11/22 08:06:08;;;;;;;26.35;14.07;;;5.40;99.90;;;;;;5096055;28;20048;-78
2022/11/22 08:08:35;;;;;;;26.98;15.18;;;5.50;99.90;;;;;;5096746;28;20457;-79
2022/11/22 08:11:00;;;;;;;29.58;12.75;;;5.30;99.90;;;;;;5096469;28;20044;-79
2022/11/22 08:13:27;;;;;;;19.35;12.68;;;5.50;99.90;;;;;;5098220;28;20044;-79
2022/11/22 08:15:53;;;;;;;30.83;14.88;;;5.50;99.90;;;;;;5097537;28;20435;-80
2022/11/22 08:18:19;;;;;;;24.67;12.95;;;5.30;99.90;;;;;;5097305;28;20398;-79
2022/11/22 08:20:44;;;;;;;22.98;13.35;;;5.50;99.90;;;;;;5096414;28;20047;-79
2022/11/22 08:23:10;;;;;;;23.67;11.23;;;5.70;99.90;;;;;;5094658;28;20043;-79
2022/11/22 08:25:36;;;;;;;34.85;12.90;;;5.50;99.90;;;;;;5076242;28;20051;-79
2022/11/22 08:28:02;;;;;;;31.67;16.40;;;5.60;99.90;;;;;;5093162;28;20494;-79
2022/11/22 08:30:27;;;;;;;48.10;20.35;;;5.50;99.90;;;;;;5077647;28;20039;-80
2022/11/22 08:32:56;;;;;;;60.80;29.50;;;5.60;99.90;;;;;;5094559;28;20039;-79
2022/11/22 08:35:22;;;;;;;40.15;19.00;;;5.70;99.90;;;;;;5094432;28;20055;-80
2022/11/22 08:37:47;;;;;;;23.42;11.07;;;5.90;99.90;;;;;;5093218;28;20055;-79
2022/11/22 08:40:13;;;;;;;24.10;9.18;;;5.90;99.90;;;;;;5092514;28;20035;-79
2022/11/22 08:42:39;;;;;;;23.23;8.38;;;5.70;99.90;;;;;;5092227;28;20032;-79
2022/11/22 08:45:05;;;;;;;15.77;7.55;;;6.00;99.90;;;;;;5091098;28;20100;-79
2022/11/22 08:47:30;;;;;;;20.40;7.40;;;5.70;99.90;;;;;;5091000;28;20140;-79
2022/11/22 08:49:56;;;;;;;20.58;8.70;;;5.80;99.90;;;;;;5091365;28;20513;-79
2022/11/22 08:52:21;;;;;;;17.25;7.60;;;6.10;99.90;;;;;;5099529;28;20039;-81
2022/11/22 08:54:47;;;;;;;17.73;7.68;;;6.00;99.90;;;;;;5110987;28;20370;-79
2022/11/22 08:57:13;;;;;;;18.13;6.78;;;5.80;99.90;;;;;;5110961;28;20142;-79
2022/11/22 08:59:38;;;;;;;20.50;6.57;;;5.80;99.90;;;;;;5111363;28;20519;-80
2022/11/22 09:02:04;;;;;;;16.13;6.68;;;6.00;99.90;;;;;;5111802;28;20567;-79
2022/11/22 09:04:29;;;;;;;17.58;6.95;;;6.00;99.90;;;;;;5111591;28;20040;-79
2022/11/22 09:06:56;;;;;;;11.88;6.10;;;6.20;99.90;;;;;;5112048;28;20127;-79
2022/11/22 09:09:21;;;;;;;19.58;6.40;;;6.20;99.90;;;;;;5111523;28;20205;-79
2022/11/22 09:11:47;;;;;;;18.33;6.53;;;6.00;99.90;;;;;;5111386;28;20585;-80
2022/11/22 09:14:12;;;;;;;12.55;6.00;;;6.30;99.90;;;;;;5111703;28;20040;-79
2022/11/22 09:16:38;;;;;;;18.92;6.88;;;6.10;99.90;;;;;;5110883;28;20047;-79
2022/11/22 09:19:03;;;;;;;15.90;6.50;;;6.10;99.90;;;;;;5111101;28;20042;-79
2022/11/22 09:21:29;;;;;;;15.75;6.78;;;6.10;99.90;;;;;;5111221;28;20031;-80
2022/11/22 09:23:54;;;;;;;12.07;5.05;;;6.40;99.90;;;;;;5111020;28;20059;-79
2022/11/22 09:26:23;;;;;;;17.58;6.10;;;6.30;99.90;;;;;;5111966;28;20043;-78
2022/11/22 09:28:49;;;;;;;18.10;6.75;;;6.40;99.90;;;;;;5111029;28;20035;-78
2022/11/22 09:31:17;;;;;;;19.30;5.72;;;6.10;99.90;;;;;;5102848;28;20588;-77
2022/11/22 09:33:44;;;;;;;14.32;5.80;;;6.10;99.90;;;;;;5100439;28;20036;-77
2022/11/22 09:36:12;;;;;;;17.42;5.40;;;6.40;99.90;;;;;;5114878;28;20148;-77
2022/11/22 09:38:38;;;;;;;15.35;5.20;;;6.60;99.90;;;;;;5114999;28;20435;-78
2022/11/22 09:41:16;;;;;;;10.93;3.75;;;6.20;99.90;;;;;;5114809;28;20044;-78
2022/11/22 09:44:18;;;;;;;11.85;5.32;;;6.50;99.90;;;;;;5114532;28;20043;-77
2022/11/22 09:47:14;;;;;;;16.23;4.45;;;6.50;99.90;;;;;;5114746;28;20035;-77
2022/11/22 09:49:58;;;;;;;13.70;3.90;;;6.30;99.90;;;;;;5120760;28;20035;-81
2022/11/22 09:52:50;;;;;;;12.80;3.30;;;6.30;99.90;;;;;;5119385;28;20484;-79
2022/11/22 09:55:26;;;;;;;8.32;3.30;;;6.40;99.90;;;;;;5117658;28;20074;-79
2022/11/22 09:58:05;;;;;;;12.07;4.63;;;6.60;99.90;;;;;;5115534;28;20040;-78
2022/11/22 10:00:31;;;;;;;17.17;4.18;;;6.20;99.90;;;;;;5111298;28;20036;-79
2022/11/22 10:03:22;;;;;;;18.00;4.68;;;6.50;99.90;;;;;;5103511;28;20047;-79
2022/11/22 10:05:52;;;;;;;12.70;4.97;;;6.50;99.90;;;;;;5105254;28;20043;-78
2022/11/22 10:08:38;;;;;;;11.98;3.35;;;6.30;99.90;;;;;;5102126;28;20044;-78
2022/11/22 10:11:33;;;;;;;14.57;3.88;;;6.50;99.90;;;;;;5096602;28;20058;-79
2022/11/22 10:14:03;;;;;;;10.57;3.42;;;6.30;99.90;;;;;;5083799;28;20040;-79
2022/11/22 10:16:37;;;;;;;14.65;4.05;;;6.50;99.90;;;;;;5094131;28;20036;-80
2022/11/22 10:19:22;;;;;;;9.52;3.63;;;6.40;99.90;;;;;;5104010;28;20039;-80
2022/11/22 10:21:48;;;;;;;7.95;4.03;;;6.70;99.90;;;;;;5105457;28;20051;-77
2022/11/22 10:24:16;;;;;;;14.35;3.13;;;6.80;99.90;;;;;;5104217;28;20036;-78
2022/11/22 10:26:43;;;;;;;12.75;4.20;;;6.60;99.90;;;;;;5106316;28;20036;-78
2022/11/22 10:29:27;;;;;;;9.68;3.45;;;6.60;99.90;;;;;;5116115;28;20086;-78
2022/11/22 10:32:19;;;;;;;10.30;3.20;;;6.60;99.90;;;;;;5114444;28;20051;-78
2022/11/22 10:35:08;;;;;;;7.38;4.07;;;6.60;99.90;;;;;;5113383;28;20626;-78
2022/11/22 10:37:52;;;;;;;11.30;3.63;;;6.70;99.90;;;;;;5113463;28;20127;-78
2022/11/22 10:40:34;;;;;;;8.10;3.42;;;6.70;99.90;;;;;;5113444;28;20050;-77
2022/11/22 10:43:18;;;;;;;11.93;3.03;;;6.80;99.90;;;;;;5113459;28;20241;-77
2022/11/22 10:46:02;;;;;;;11.25;3.05;;;6.80;99.90;;;;;;5113366;28;20454;-78
2022/11/22 10:48:43;;;;;;;8.57;2.70;;;6.80;99.90;;;;;;5113257;28;20035;-78
2022/11/22 10:51:36;;;;;;;6.03;2.78;;;6.60;99.90;;;;;;5113352;28;20073;-73
2022/11/22 10:54:39;;;;;;;8.68;2.70;;;6.70;99.90;;;;;;5114141;28;20446;-73
2022/11/22 10:57:31;;;;;;;9.32;2.42;;;7.10;99.90;;;;;;5087783;28;20504;-72
2022/11/22 11:00:16;;;;;;;8.25;1.95;;;7.20;99.90;;;;;;5113194;28;20110;-73
2022/11/22 11:02:58;;;;;;;11.82;2.40;;;7.40;99.90;;;;;;5114053;28;20043;-73
2022/11/22 11:05:39;;;;;;;12.70;3.00;;;7.40;99.90;;;;;;5112896;28;20044;-73
2022/11/22 11:08:07;;;;;;;9.10;3.22;;;7.60;99.90;;;;;;5114502;27;20031;-73
2022/11/22 11:10:38;;;;;;;10.30;2.63;;;7.70;99.90;;;;;;5113003;28;20434;-73
2022/11/22 11:13:22;;;;;;;8.30;3.22;;;7.80;99.90;;;;;;5113886;28;20592;-73
2022/11/22 11:15:50;;;;;;;10.73;2.63;;;7.90;99.90;;;;;;5112983;28;20127;-73
2022/11/22 11:18:22;;;;;;;9.52;2.30;;;8.00;99.90;;;;;;5114240;28;20119;-73
2022/11/22 11:20:50;;;;;;;10.05;2.95;;;7.90;99.90;;;;;;5112720;28;20046;-73
2022/11/22 11:23:15;;;;;;;7.72;2.03;;;7.90;99.90;;;;;;5113935;28;20051;-73
2022/11/22 11:25:46;;;;;;;6.63;2.88;;;8.00;99.90;;;;;;5113919;28;20665;-73
2022/11/22 11:28:19;;;;;;;6.30;2.10;;;7.90;99.90;;;;;;5113915;28;20104;-73
2022/11/22 11:30:59;;;;;;;6.65;2.05;;;7.90;99.90;;;;;;5114037;28;20481;-73
2022/11/22 11:33:27;;;;;;;10.40;2.35;;;8.00;99.90;;;;;;5112424;28;20500;-73
2022/11/22 11:35:56;;;;;;;7.63;2.78;;;8.00;99.90;;;;;;5112382;28;20096;-73
2022/11/22 11:38:45;;;;;;;11.25;5.40;;;8.00;99.90;;;;;;5109052;28;20044;-73
2022/11/22 11:41:37;;;;;;;8.88;2.53;;;8.00;99.90;;;;;;5089651;28;20059;-73
2022/11/22 11:44:04;;;;;;;9.80;2.17;;;8.00;99.90;;;;;;5099867;28;20132;-73
2022/11/22 11:46:38;;;;;;;7.30;2.42;;;8.00;99.90;;;;;;5101591;28;20048;-72
2022/11/22 11:49:13;;;;;;;7.43;2.95;;;7.90;99.90;;;;;;5102422;28;20633;-72
2022/11/22 11:51:42;;;;;;;7.45;2.10;;;8.00;99.90;;;;;;5101182;28;20036;-73
2022/11/22 11:54:28;;;;;;;8.70;1.98;;;7.90;99.90;;;;;;5107837;28;20069;-73
2022/11/22 11:57:02;;;;;;;7.53;1.90;;;8.00;99.90;;;;;;5092402;28;20048;-73
2022/11/22 11:59:45;;;;;;;5.10;2.10;;;7.90;99.90;;;;;;5093019;28;20029;-73
2022/11/22 12:02:16;;;;;;;6.22;1.85;;;8.00;99.90;;;;;;5092906;28;20040;-73
2022/11/22 12:04:53;;;;;;;7.50;2.10;;;8.00;99.90;;;;;;5092569;28;20410;-73
2022/11/22 12:07:27;;;;;;;11.25;3.38;;;7.90;99.90;;;;;;5091027;28;20044;-73
2022/11/22 12:09:54;;;;;;;14.57;2.92;;;7.90;99.90;;;;;;5091375;28;20111;-73
2022/11/22 12:12:41;;;;;;;18.65;4.40;;;8.00;99.90;;;;;;5091217;28;20043;-73
2022/11/22 12:15:30;;;;;;;35.90;5.68;;;8.00;99.90;;;;;;5091661;28;20036;-73
2022/11/22 12:18:03;;;;;;;12.27;2.67;;;8.00;99.90;;;;;;5091483;28;20510;-73
2022/11/22 12:20:52;;;;;;;19.25;3.75;;;8.10;99.90;;;;;;5092858;28;20040;-73
2022/11/22 12:23:49;;;;;;;15.27;2.63;;;8.20;99.90;;;;;;5097405;28;20044;-73
2022/11/22 12:26:15;;;;;;;11.07;3.17;;;8.20;99.90;;;;;;5101163;28;20028;-73
2022/11/22 12:28:41;;;;;;;5.88;1.88;;;8.20;99.90;;;;;;5112883;28;20501;-73
2022/11/22 12:31:28;;;;;;;7.13;2.03;;;8.20;99.90;;;;;;5111414;28;20035;-73
2022/11/22 12:33:57;;;;;;;5.93;2.08;;;8.20;99.90;;;;;;5111092;28;20040;-74
2022/11/22 12:36:45;;;;;;;7.43;1.90;;;8.30;99.90;;;;;;5110680;28;20135;-73
2022/11/22 12:39:16;;;;;;;5.55;2.10;;;8.30;99.90;;;;;;5073699;28;20044;-73
2022/11/22 12:41:42;;;;;;;4.60;2.05;;;8.30;99.90;;;;;;5101199;28;20070;-73
2022/11/22 12:44:15;;;;;;;9.32;2.05;;;8.30;99.90;;;;;;5112188;28;20092;-74
2022/11/22 12:46:45;;;;;;;8.20;1.75;;;8.30;99.90;;;;;;5112282;28;20040;-73
2022/11/22 12:49:14;;;;;;;4.63;1.63;;;8.30;99.90;;;;;;5112295;28;20036;-74
2022/11/22 12:51:48;;;;;;;6.13;2.05;;;8.30;99.90;;;;;;5112527;28;20605;-73
2022/11/22 12:54:22;;;;;;;9.07;2.97;;;8.30;99.90;;;;;;5111977;28;20485;-73
2022/11/22 12:56:52;;;;;;;7.90;2.60;;;8.20;99.90;;;;;;5112237;28;20055;-73
2022/11/22 12:59:39;;;;;;;8.02;1.83;;;8.30;99.90;;;;;;5111156;28;20079;-73
2022/11/22 13:02:37;;;;;;;7.60;1.85;;;8.20;99.90;;;;;;5110890;28;20043;-74
2022/11/22 13:05:12;;;;;;;8.68;2.60;;;8.20;99.90;;;;;;5106187;28;20079;-73